Time;durP1;ratioP1;P1;durP2;ratioP2;P2;SDS_P1;SDS_P2;PMS_P1;PMS_P2;Temp;Humidity;BMP_temperature;BMP_pressure;BME280_temperature;BME280_humidity;BME280_pressure;Samples;Min_cycle;Max_cycle;Signal;HPM_P1;HPM_P2
2022/07/28 00:02:05;;;;;;;4.60;1.40;;;13.50;99.90;;;;;;5033413;28;20558;-77
2022/07/28 00:04:32;;;;;;;5.63;1.77;;;13.40;99.90;;;;;;5033398;28;20208;-77
2022/07/28 00:06:58;;;;;;;2.40;1.40;;;13.30;99.90;;;;;;5033545;28;20172;-77
2022/07/28 00:09:24;;;;;;;2.80;1.30;;;13.20;99.90;;;;;;5033465;28;20226;-76
2022/07/28 00:11:50;;;;;;;6.67;1.70;;;13.30;99.90;;;;;;5033260;28;20538;-77
2022/07/28 00:14:15;;;;;;;5.33;1.80;;;13.30;99.90;;;;;;5033084;28;20204;-77
2022/07/28 00:16:41;;;;;;;3.80;1.40;;;13.30;99.90;;;;;;5033572;28;20164;-75
2022/07/28 00:19:07;;;;;;;4.17;1.60;;;13.30;99.90;;;;;;5033121;28;20235;-75
2022/07/28 00:21:32;;;;;;;9.43;1.67;;;13.30;99.90;;;;;;5032723;28;20645;-75
2022/07/28 00:23:58;;;;;;;3.83;1.50;;;13.20;99.90;;;;;;5033133;28;20660;-75
2022/07/28 00:26:24;;;;;;;4.50;1.53;;;13.10;99.90;;;;;;5033110;28;20209;-75
2022/07/28 00:28:49;;;;;;;5.70;1.90;;;13.10;99.90;;;;;;5034393;28;20170;-75
2022/07/28 00:31:15;;;;;;;7.37;1.70;;;13.10;99.90;;;;;;5032889;28;20646;-76
2022/07/28 00:33:41;;;;;;;4.50;1.50;;;13.20;99.90;;;;;;5033175;28;20175;-75
2022/07/28 00:36:08;;;;;;;2.73;1.47;;;13.10;99.90;;;;;;5032931;28;20174;-75
2022/07/28 00:38:34;;;;;;;5.50;1.60;;;13.00;99.90;;;;;;5032053;28;20175;-76
2022/07/28 00:41:12;;;;;;;5.50;1.87;;;13.10;99.90;;;;;;5032897;28;20658;-75
2022/07/28 00:43:41;;;;;;;4.00;1.87;;;13.00;99.90;;;;;;5032670;28;20185;-75
2022/07/28 00:46:07;;;;;;;5.00;1.87;;;13.20;99.90;;;;;;5032669;28;20263;-75
2022/07/28 00:48:36;;;;;;;4.10;1.53;;;13.10;99.90;;;;;;5032727;28;20179;-75
2022/07/28 00:51:02;;;;;;;5.47;1.70;;;12.90;99.90;;;;;;5032744;28;20175;-75
2022/07/28 00:53:29;;;;;;;6.17;1.70;;;13.00;99.90;;;;;;5032536;28;20556;-75
2022/07/28 00:55:54;;;;;;;3.27;1.77;;;13.00;99.90;;;;;;5032678;28;20259;-76
2022/07/28 00:58:20;;;;;;;4.03;1.50;;;12.90;99.90;;;;;;5032604;28;20207;-75
2022/07/28 01:00:46;;;;;;;5.60;1.80;;;13.10;99.90;;;;;;5032488;28;20190;-75
2022/07/28 01:03:11;;;;;;;5.27;2.10;;;13.20;99.90;;;;;;5032089;28;20174;-75
2022/07/28 01:06:01;;;;;;;4.70;1.60;;;13.00;99.90;;;;;;5032241;28;20206;-75
2022/07/28 01:08:32;;;;;;;4.90;1.70;;;13.10;99.90;;;;;;5032377;28;20778;-76
2022/07/28 01:11:10;;;;;;;3.30;1.80;;;13.00;99.90;;;;;;5032507;28;20539;-75
2022/07/28 01:13:42;;;;;;;4.33;1.80;;;13.00;99.90;;;;;;5031849;28;20179;-75
2022/07/28 01:16:08;;;;;;;9.70;2.17;;;13.00;99.90;;;;;;5032203;28;20593;-75
2022/07/28 01:18:45;;;;;;;3.37;1.80;;;13.00;99.90;;;;;;5032198;28;20646;-75
2022/07/28 01:21:14;;;;;;;5.10;1.63;;;12.90;99.90;;;;;;5031440;28;20729;-76
2022/07/28 01:23:45;;;;;;;7.67;1.53;;;12.90;99.90;;;;;;5032155;28;20202;-75
2022/07/28 01:26:38;;;;;;;6.80;1.60;;;12.70;99.90;;;;;;5031896;28;20194;-75
2022/07/28 01:29:44;;;;;;;7.90;1.80;;;12.70;99.90;;;;;;5031999;28;20249;-75
2022/07/28 01:32:24;;;;;;;4.90;1.47;;;12.70;99.90;;;;;;5031687;28;20181;-76
2022/07/28 01:34:58;;;;;;;5.57;2.07;;;12.60;99.90;;;;;;5031782;28;20247;-75
2022/07/28 01:37:28;;;;;;;4.10;1.90;;;12.80;99.90;;;;;;5031737;28;20185;-75
2022/07/28 01:40:03;;;;;;;8.77;2.00;;;12.70;99.90;;;;;;5031407;28;20198;-75
2022/07/28 01:42:39;;;;;;;5.73;2.33;;;12.70;99.90;;;;;;5031582;28;20526;-75
2022/07/28 01:45:07;;;;;;;4.53;1.90;;;12.70;99.90;;;;;;5031375;28;20212;-76
2022/07/28 01:47:34;;;;;;;5.73;2.00;;;12.80;99.90;;;;;;5031673;28;20653;-77
2022/07/28 01:50:05;;;;;;;9.33;2.00;;;12.60;99.90;;;;;;5031591;28;20172;-78
2022/07/28 01:52:33;;;;;;;6.77;1.73;;;12.60;99.90;;;;;;5030927;28;20173;-77
2022/07/28 01:55:01;;;;;;;3.87;1.93;;;12.80;99.90;;;;;;5031543;28;20198;-77
2022/07/28 01:57:30;;;;;;;5.50;1.73;;;12.90;99.90;;;;;;5031451;28;20182;-77
2022/07/28 01:59:57;;;;;;;3.33;2.00;;;12.90;99.90;;;;;;5031328;28;20663;-77
2022/07/28 02:02:25;;;;;;;4.40;2.37;;;12.90;99.90;;;;;;5032105;28;20254;-77
2022/07/28 02:04:53;;;;;;;4.50;1.97;;;12.90;99.90;;;;;;5030841;28;20289;-76
2022/07/28 02:07:21;;;;;;;14.53;2.90;;;12.90;99.90;;;;;;5030977;28;20170;-77
2022/07/28 02:09:47;;;;;;;5.47;1.70;;;12.90;99.90;;;;;;5030823;28;20551;-77
2022/07/28 02:12:16;;;;;;;4.17;1.80;;;12.80;99.90;;;;;;5031968;28;20169;-76
2022/07/28 02:14:45;;;;;;;6.97;1.73;;;12.80;99.90;;;;;;5031638;28;20281;-77
2022/07/28 02:17:15;;;;;;;6.67;1.70;;;12.80;99.90;;;;;;5031196;28;20179;-77
2022/07/28 02:19:44;;;;;;;5.87;1.87;;;12.90;99.90;;;;;;5030684;28;20225;-76
2022/07/28 02:22:11;;;;;;;4.40;1.70;;;12.70;99.90;;;;;;5032019;28;20644;-77
2022/07/28 02:24:39;;;;;;;4.13;1.83;;;12.70;99.90;;;;;;5030890;28;20202;-77
2022/07/28 02:27:19;;;;;;;4.97;1.87;;;12.60;99.90;;;;;;5031068;28;20181;-77
2022/07/28 02:29:49;;;;;;;6.40;1.93;;;12.40;99.90;;;;;;5031134;28;20200;-77
2022/07/28 02:32:35;;;;;;;4.27;2.00;;;12.50;99.90;;;;;;5030846;28;20170;-76
2022/07/28 02:35:07;;;;;;;6.53;2.10;;;12.50;99.90;;;;;;5030900;28;20748;-77
2022/07/28 02:37:40;;;;;;;6.20;2.20;;;12.50;99.90;;;;;;5030899;28;20174;-77
2022/07/28 02:40:10;;;;;;;4.17;1.90;;;12.50;99.90;;;;;;5030815;28;20248;-77
2022/07/28 02:42:38;;;;;;;5.87;1.90;;;12.50;99.90;;;;;;5030830;28;20661;-77
2022/07/28 02:45:07;;;;;;;3.00;1.90;;;12.60;99.90;;;;;;5030518;28;20204;-78
2022/07/28 02:47:39;;;;;;;3.57;1.97;;;12.30;99.90;;;;;;5030947;28;20170;-77
2022/07/28 02:50:05;;;;;;;6.07;2.23;;;12.20;99.90;;;;;;5031146;28;20176;-78
2022/07/28 02:52:33;;;;;;;6.67;2.30;;;12.40;99.90;;;;;;5030665;28;20174;-77
2022/07/28 02:55:01;;;;;;;6.17;2.27;;;12.40;99.90;;;;;;5030769;28;20198;-77
2022/07/28 02:57:29;;;;;;;5.20;2.17;;;12.30;99.90;;;;;;5032112;28;20231;-77
2022/07/28 02:59:55;;;;;;;4.13;2.33;;;12.30;99.90;;;;;;5030743;28;20197;-77
2022/07/28 03:02:22;;;;;;;3.13;2.30;;;12.30;99.90;;;;;;5030676;28;20178;-78
2022/07/28 03:04:57;;;;;;;7.93;2.20;;;12.20;99.90;;;;;;5034459;28;20205;-77
2022/07/28 03:07:28;;;;;;;5.60;2.00;;;12.20;99.90;;;;;;5034820;28;20177;-78
2022/07/28 03:09:54;;;;;;;9.40;2.40;;;12.10;99.90;;;;;;5034712;28;20199;-77
2022/07/28 03:12:19;;;;;;;6.17;2.53;;;12.00;99.90;;;;;;5034474;28;20568;-78
2022/07/28 03:14:45;;;;;;;5.50;2.23;;;12.10;99.90;;;;;;5034336;28;20725;-78
2022/07/28 03:17:11;;;;;;;8.23;2.67;;;12.00;99.90;;;;;;5034896;28;20626;-77
2022/07/28 03:19:36;;;;;;;5.70;2.23;;;12.00;99.90;;;;;;5034167;28;20236;-77
2022/07/28 03:22:03;;;;;;;6.17;2.20;;;12.10;99.90;;;;;;5034239;28;20185;-79
2022/07/28 03:24:35;;;;;;;4.40;2.33;;;11.90;99.90;;;;;;5034260;28;20197;-78
2022/07/28 03:27:16;;;;;;;6.77;2.33;;;11.90;99.90;;;;;;5034274;28;20627;-77
2022/07/28 03:29:45;;;;;;;4.43;2.30;;;11.90;99.90;;;;;;5034295;28;20709;-77
2022/07/28 03:32:11;;;;;;;2.93;2.20;;;11.90;99.90;;;;;;5034135;28;20178;-77
2022/07/28 03:34:37;;;;;;;5.53;2.60;;;11.80;99.90;;;;;;5034152;28;20294;-77
2022/07/28 03:37:17;;;;;;;4.13;2.20;;;11.70;99.90;;;;;;5034120;28;20184;-77
2022/07/28 03:39:46;;;;;;;7.97;2.40;;;11.90;99.90;;;;;;5033997;28;20190;-78
2022/07/28 03:42:17;;;;;;;7.17;2.60;;;11.80;99.90;;;;;;5033895;28;20219;-77
2022/07/28 03:44:45;;;;;;;5.60;2.20;;;11.50;99.90;;;;;;5033721;28;20202;-77
2022/07/28 03:47:11;;;;;;;4.17;2.33;;;11.50;99.90;;;;;;5034073;28;20177;-78
2022/07/28 03:49:37;;;;;;;5.97;2.77;;;11.60;99.90;;;;;;5033969;28;20178;-76
2022/07/28 03:52:03;;;;;;;8.30;2.57;;;11.50;99.90;;;;;;5033628;28;20220;-77
2022/07/28 03:54:29;;;;;;;8.03;2.50;;;11.50;99.90;;;;;;5033778;28;20833;-77
2022/07/28 03:56:54;;;;;;;5.73;3.13;;;11.60;99.90;;;;;;5033763;28;20211;-77
2022/07/28 03:59:20;;;;;;;11.77;2.80;;;11.60;99.90;;;;;;5033707;28;20244;-77
2022/07/28 04:01:46;;;;;;;4.57;2.30;;;11.60;99.90;;;;;;5033467;28;20186;-77
2022/07/28 04:04:12;;;;;;;5.07;2.60;;;11.50;99.90;;;;;;5033801;28;20208;-78
2022/07/28 04:06:37;;;;;;;5.17;2.50;;;11.70;99.90;;;;;;5033517;28;20263;-77
2022/07/28 04:09:03;;;;;;;6.77;2.40;;;11.60;99.90;;;;;;5033642;28;20686;-77
2022/07/28 04:11:29;;;;;;;7.07;2.43;;;11.50;99.90;;;;;;5033274;28;20231;-77
2022/07/28 04:13:55;;;;;;;9.67;2.90;;;11.40;99.90;;;;;;5032828;28;20585;-77
2022/07/28 04:16:21;;;;;;;8.73;2.60;;;11.40;99.90;;;;;;5033693;28;20191;-77
2022/07/28 04:18:47;;;;;;;8.30;2.70;;;11.40;99.90;;;;;;5033392;28;20181;-78
2022/07/28 04:21:13;;;;;;;6.00;2.80;;;11.40;99.90;;;;;;5032729;28;20546;-78
2022/07/28 04:23:39;;;;;;;7.77;2.70;;;11.40;99.90;;;;;;5033224;28;20225;-77
2022/07/28 04:26:04;;;;;;;5.30;2.43;;;11.50;99.90;;;;;;5033203;28;20610;-77
2022/07/28 04:28:30;;;;;;;5.80;2.70;;;11.70;99.90;;;;;;5033253;28;20695;-78
2022/07/28 04:30:56;;;;;;;7.73;2.77;;;11.60;99.90;;;;;;5033285;28;20186;-79
2022/07/28 04:33:21;;;;;;;5.97;2.47;;;11.80;99.90;;;;;;5033087;28;20279;-78
2022/07/28 04:35:47;;;;;;;4.87;2.50;;;11.70;99.90;;;;;;5033303;28;20207;-78
2022/07/28 04:38:13;;;;;;;9.53;2.67;;;11.70;99.90;;;;;;5032719;28;20185;-77
2022/07/28 04:40:40;;;;;;;4.67;2.67;;;11.40;99.90;;;;;;5032925;28;20570;-78
2022/07/28 04:43:06;;;;;;;8.63;2.60;;;11.60;99.90;;;;;;5032876;28;20187;-78
2022/07/28 04:45:33;;;;;;;9.30;3.00;;;11.50;99.90;;;;;;5033148;28;20255;-78
2022/07/28 04:47:58;;;;;;;7.27;2.70;;;11.50;99.90;;;;;;5032973;28;20178;-78
2022/07/28 04:50:24;;;;;;;5.67;2.70;;;11.70;99.90;;;;;;5032857;28;20180;-77
2022/07/28 04:52:50;;;;;;;9.13;2.73;;;11.90;99.90;;;;;;5032976;28;20171;-77
2022/07/28 04:55:17;;;;;;;8.77;2.47;;;12.10;99.90;;;;;;5033996;28;20202;-78
2022/07/28 04:57:43;;;;;;;5.53;2.13;;;12.30;99.90;;;;;;5032766;28;20178;-77
2022/07/28 05:00:12;;;;;;;5.20;2.20;;;12.60;99.90;;;;;;5032601;28;20637;-77
2022/07/28 05:02:38;;;;;;;7.03;2.57;;;13.00;99.90;;;;;;5032314;28;20658;-77
2022/07/28 05:05:04;;;;;;;11.20;2.17;;;12.90;99.90;;;;;;5032388;28;20292;-78
2022/07/28 05:07:30;;;;;;;9.10;2.37;;;12.90;99.90;;;;;;5032453;28;20178;-78
2022/07/28 05:09:55;;;;;;;8.30;2.20;;;13.10;99.90;;;;;;5032461;28;20539;-77
2022/07/28 05:12:21;;;;;;;5.00;2.10;;;13.20;99.90;;;;;;5032278;28;20811;-78
2022/07/28 05:14:47;;;;;;;6.53;2.30;;;13.10;99.90;;;;;;5032160;28;20198;-77
2022/07/28 05:17:13;;;;;;;4.90;2.10;;;13.00;99.90;;;;;;5032184;28;20184;-77
2022/07/28 05:19:39;;;;;;;4.33;1.93;;;12.90;99.90;;;;;;5031922;28;20196;-76
2022/07/28 05:22:04;;;;;;;6.07;2.00;;;13.10;99.90;;;;;;5032004;28;20235;-76
2022/07/28 05:24:30;;;;;;;8.07;2.10;;;13.20;99.90;;;;;;5032048;28;20202;-77
2022/07/28 05:26:56;;;;;;;6.97;2.10;;;13.30;99.90;;;;;;5031396;28;20196;-77
2022/07/28 05:29:22;;;;;;;9.80;2.20;;;13.50;99.90;;;;;;5032047;28;20548;-78
2022/07/28 05:31:48;;;;;;;5.50;2.20;;;13.50;99.90;;;;;;5031926;28;20515;-77
2022/07/28 05:34:13;;;;;;;4.80;2.17;;;13.80;99.90;;;;;;5031808;28;20194;-77
2022/07/28 05:36:39;;;;;;;5.50;1.90;;;14.00;99.90;;;;;;5031956;28;20232;-77
2022/07/28 05:39:05;;;;;;;4.87;2.20;;;13.90;99.90;;;;;;5031535;28;20224;-77
2022/07/28 05:41:30;;;;;;;3.70;2.10;;;14.00;99.90;;;;;;5031594;28;20185;-77
2022/07/28 05:43:57;;;;;;;7.10;2.10;;;14.10;99.90;;;;;;5031369;28;20289;-78
2022/07/28 05:46:23;;;;;;;3.27;1.70;;;14.30;99.90;;;;;;5031655;28;20208;-77
2022/07/28 05:48:50;;;;;;;4.67;1.77;;;14.40;99.90;;;;;;5031652;28;20182;-77
2022/07/28 05:51:16;;;;;;;4.73;1.67;;;14.50;99.90;;;;;;5031499;28;20185;-77
2022/07/28 05:53:41;;;;;;;3.47;1.70;;;14.70;99.90;;;;;;5031552;28;20183;-77
2022/07/28 05:56:07;;;;;;;5.60;1.60;;;14.90;99.90;;;;;;5031577;28;20210;-77
2022/07/28 05:58:32;;;;;;;4.13;1.73;;;15.30;99.90;;;;;;5031490;28;20577;-78
2022/07/28 06:01:00;;;;;;;5.20;2.20;;;15.00;99.90;;;;;;5028087;28;20183;-76
2022/07/28 06:03:26;;;;;;;3.80;1.70;;;15.20;99.90;;;;;;5017631;28;20178;-77
2022/07/28 06:05:55;;;;;;;5.33;1.50;;;15.70;99.90;;;;;;5020017;28;20220;-76
2022/07/28 06:08:23;;;;;;;6.57;1.70;;;15.80;99.90;;;;;;5031258;28;20178;-76
2022/07/28 06:11:00;;;;;;;5.07;1.50;;;16.30;99.90;;;;;;5031105;28;20182;-78
2022/07/28 06:13:26;;;;;;;3.33;1.40;;;16.90;99.90;;;;;;5030939;28;20239;-77
2022/07/28 06:15:52;;;;;;;6.63;1.50;;;17.00;99.90;;;;;;5030695;28;20216;-75
2022/07/28 06:18:19;;;;;;;6.07;1.93;;;16.90;99.90;;;;;;5031175;28;20650;-76
2022/07/28 06:20:45;;;;;;;4.40;1.40;;;17.00;99.90;;;;;;5030836;28;20197;-75
2022/07/28 06:23:11;;;;;;;8.83;1.47;;;16.80;99.90;;;;;;5030870;28;20178;-75
2022/07/28 06:25:37;;;;;;;3.53;1.47;;;16.70;99.90;;;;;;5031200;28;20210;-75
2022/07/28 06:28:03;;;;;;;7.10;1.60;;;16.30;99.90;;;;;;5031290;28;20181;-75
2022/07/28 06:30:30;;;;;;;3.93;1.60;;;16.00;99.90;;;;;;5031075;28;20174;-75
2022/07/28 06:32:56;;;;;;;4.07;1.60;;;16.10;99.90;;;;;;5030610;28;20639;-76
2022/07/28 06:35:23;;;;;;;2.80;1.87;;;16.50;99.90;;;;;;5030966;28;20205;-76
2022/07/28 06:37:51;;;;;;;3.17;1.30;;;16.70;99.90;;;;;;5030223;28;20185;-76
2022/07/28 06:40:18;;;;;;;3.00;1.53;;;16.70;99.90;;;;;;5030885;28;20198;-76
2022/07/28 06:42:44;;;;;;;4.03;1.30;;;17.20;99.90;;;;;;5029814;28;20205;-76
2022/07/28 06:45:11;;;;;;;7.85;1.48;;;18.00;99.90;;;;;;5028030;28;20713;-76
2022/07/28 06:47:37;;;;;;;4.68;1.40;;;17.80;99.90;;;;;;5030897;28;20654;-75
2022/07/28 06:50:04;;;;;;;2.10;1.52;;;17.80;99.90;;;;;;5030826;28;20233;-76
2022/07/28 06:52:31;;;;;;;3.25;1.30;;;17.80;99.90;;;;;;5030539;28;20195;-77
2022/07/28 06:54:58;;;;;;;3.95;1.23;;;18.10;99.90;;;;;;5030739;28;20194;-78
2022/07/28 06:57:24;;;;;;;4.68;1.33;;;17.70;99.90;;;;;;5030724;28;20185;-76
2022/07/28 06:59:50;;;;;;;2.25;1.10;;;17.90;99.90;;;;;;5030700;28;20218;-77
2022/07/28 07:02:16;;;;;;;6.13;1.58;;;18.10;99.90;;;;;;5030389;28;20182;-77
2022/07/28 07:04:42;;;;;;;3.45;1.58;;;18.10;99.90;;;;;;5030618;28;20200;-76
2022/07/28 07:07:08;;;;;;;3.63;1.40;;;18.60;99.90;;;;;;5030656;28;20220;-76
2022/07/28 07:09:34;;;;;;;9.32;1.90;;;18.60;99.90;;;;;;5030158;28;20531;-77
2022/07/28 07:12:00;;;;;;;5.68;1.52;;;18.20;99.90;;;;;;5030332;28;20260;-76
2022/07/28 07:14:26;;;;;;;3.60;1.25;;;18.10;99.90;;;;;;5029543;28;20343;-76
2022/07/28 07:16:52;;;;;;;4.93;1.42;;;18.30;99.90;;;;;;5031035;28;20201;-77
2022/07/28 07:19:19;;;;;;;5.75;1.33;;;18.40;99.90;;;;;;5030721;28;20177;-77
2022/07/28 07:21:46;;;;;;;4.78;1.27;;;19.30;99.90;;;;;;5030795;28;20174;-75
2022/07/28 07:24:11;;;;;;;3.92;1.40;;;19.40;99.90;;;;;;5030573;28;20709;-77
2022/07/28 07:26:37;;;;;;;8.98;1.40;;;19.70;99.90;;;;;;5030977;28;20197;-76
2022/07/28 07:29:04;;;;;;;3.97;1.33;;;20.20;99.90;;;;;;5030634;28;20174;-76
2022/07/28 07:31:32;;;;;;;8.05;1.40;;;20.50;99.90;;;;;;5029852;28;20534;-76
2022/07/28 07:34:01;;;;;;;5.07;1.30;;;19.60;99.60;;;;;;5029338;28;20541;-75
2022/07/28 07:36:27;;;;;;;3.80;1.40;;;19.60;99.90;;;;;;5030435;28;20649;-76
2022/07/28 07:38:52;;;;;;;3.63;1.50;;;19.90;99.80;;;;;;5032226;28;20190;-80
2022/07/28 07:41:18;;;;;;;2.28;1.30;;;19.80;99.70;;;;;;5034788;28;20265;-79
2022/07/28 07:43:45;;;;;;;4.35;1.60;;;20.30;98.40;;;;;;5034914;28;20598;-80
2022/07/28 07:46:10;;;;;;;6.25;1.65;;;19.70;99.70;;;;;;5041680;23;20223;-82
2022/07/28 07:48:36;;;;;;;8.07;1.40;;;20.20;99.10;;;;;;5010309;28;20171;-82
2022/07/28 07:51:02;;;;;;;2.70;1.45;;;20.70;98.20;;;;;;5015004;28;20720;-82
2022/07/28 07:53:27;;;;;;;4.07;1.30;;;20.50;97.90;;;;;;5015717;28;20194;-81
2022/07/28 07:55:53;;;;;;;3.90;1.65;;;20.20;97.90;;;;;;5016002;28;20181;-81
2022/07/28 07:58:18;;;;;;;5.57;1.67;;;20.40;99.10;;;;;;5051535;22;20798;-79
2022/07/28 08:00:44;;;;;;;2.25;1.10;;;21.20;98.50;;;;;;5034504;28;20259;-80
2022/07/28 08:03:09;;;;;;;6.28;1.15;;;21.30;97.10;;;;;;5035182;28;20178;-80
2022/07/28 08:05:35;;;;;;;3.92;1.45;;;21.30;97.40;;;;;;5022869;28;20199;-80
2022/07/28 08:08:01;;;;;;;2.53;1.20;;;21.00;98.00;;;;;;5023919;28;20209;-78
2022/07/28 08:10:26;;;;;;;3.72;1.30;;;21.40;98.00;;;;;;5025795;28;20184;-79
2022/07/28 08:12:52;;;;;;;4.18;1.50;;;21.50;97.20;;;;;;5023188;28;20710;-79
2022/07/28 08:15:17;;;;;;;4.85;1.55;;;21.80;96.70;;;;;;5024081;28;20185;-78
2022/07/28 08:17:43;;;;;;;2.83;1.10;;;21.80;96.50;;;;;;5024924;28;20701;-80
2022/07/28 08:20:09;;;;;;;5.07;1.30;;;21.10;96.30;;;;;;5023001;28;20262;-80
2022/07/28 08:22:47;;;;;;;2.83;1.23;;;20.80;95.10;;;;;;5025520;28;20260;-80
2022/07/28 08:25:12;;;;;;;4.97;1.20;;;21.50;96.00;;;;;;5025554;28;20205;-81
2022/07/28 08:27:38;;;;;;;7.40;1.45;;;21.50;94.10;;;;;;5025588;28;20842;-80
2022/07/28 08:30:04;;;;;;;3.42;1.10;;;22.10;94.60;;;;;;5023802;28;20529;-81
2022/07/28 08:32:29;;;;;;;8.13;1.45;;;20.70;94.10;;;;;;5026214;28;20181;-81
2022/07/28 08:34:55;;;;;;;4.28;1.40;;;21.10;94.50;;;;;;5024513;28;20728;-81
2022/07/28 08:37:20;;;;;;;4.40;1.67;;;21.80;94.40;;;;;;5024902;28;20678;-82
2022/07/28 08:39:46;;;;;;;6.00;1.55;;;21.40;93.30;;;;;;5026240;28;20178;-81
2022/07/28 08:42:24;;;;;;;7.20;1.30;;;21.60;92.90;;;;;;5023308;28;20175;-80
2022/07/28 08:44:54;;;;;;;4.75;1.40;;;21.30;93.10;;;;;;5024317;28;20252;-79
2022/07/28 08:47:20;;;;;;;2.45;1.30;;;21.60;93.50;;;;;;5025078;28;20188;-82
2022/07/28 08:49:47;;;;;;;6.95;1.50;;;21.40;93.20;;;;;;5025978;28;20246;-80
2022/07/28 08:52:14;;;;;;;5.63;1.40;;;22.00;94.60;;;;;;5022522;28;20171;-81
2022/07/28 08:54:43;;;;;;;5.45;1.40;;;22.60;93.50;;;;;;5023190;28;20170;-81
2022/07/28 08:57:15;;;;;;;3.90;1.20;;;23.00;92.50;;;;;;5026750;28;20205;-81
2022/07/28 08:59:40;;;;;;;3.83;1.13;;;22.60;93.00;;;;;;5025260;28;20171;-81
2022/07/28 09:02:10;;;;;;;5.30;1.50;;;22.80;92.60;;;;;;5025774;28;20188;-81
2022/07/28 09:04:37;;;;;;;5.50;1.25;;;22.20;91.70;;;;;;5035299;28;20162;-80
2022/07/28 09:07:04;;;;;;;2.38;1.20;;;21.60;92.50;;;;;;5039007;28;20214;-79
2022/07/28 09:09:30;;;;;;;2.45;0.90;;;22.00;90.80;;;;;;5036019;28;20182;-81
2022/07/28 09:11:56;;;;;;;3.67;1.52;;;22.60;91.80;;;;;;5036161;28;20185;-79
2022/07/28 09:14:21;;;;;;;2.92;1.20;;;23.30;90.80;;;;;;5027939;28;20171;-81
2022/07/28 09:16:47;;;;;;;1.92;1.30;;;23.10;92.30;;;;;;5025663;28;20954;-81
2022/07/28 09:19:13;;;;;;;4.25;1.00;;;23.20;91.60;;;;;;5026388;28;20577;-81
2022/07/28 09:21:41;;;;;;;3.97;1.17;;;23.00;90.80;;;;;;5024463;28;20566;-81
2022/07/28 09:24:07;;;;;;;2.50;1.23;;;22.60;90.40;;;;;;5024576;28;21140;-81
2022/07/28 09:26:33;;;;;;;2.85;1.20;;;22.20;91.20;;;;;;5025522;28;20194;-81
2022/07/28 09:29:00;;;;;;;1.30;1.20;;;22.60;90.20;;;;;;5024182;28;20178;-80
2022/07/28 09:31:28;;;;;;;3.85;1.30;;;21.80;90.70;;;;;;5023619;28;20261;-81
2022/07/28 09:34:04;;;;;;;3.40;1.08;;;22.10;92.30;;;;;;5022837;28;20223;-81
2022/07/28 09:36:40;;;;;;;5.57;1.33;;;23.30;90.60;;;;;;5023711;28;20227;-82
2022/07/28 09:39:06;;;;;;;5.07;1.23;;;23.30;90.10;;;;;;5023934;28;20650;-82
2022/07/28 09:41:54;;;;;;;3.83;1.27;;;22.40;91.30;;;;;;5025219;28;20225;-81
2022/07/28 09:44:21;;;;;;;4.35;1.20;;;22.20;88.90;;;;;;5023903;28;20174;-78
2022/07/28 09:46:47;;;;;;;2.60;1.02;;;22.60;90.30;;;;;;5023039;28;20193;-80
2022/07/28 09:49:13;;;;;;;5.45;1.17;;;23.00;91.10;;;;;;5025271;28;20171;-79
2022/07/28 09:51:38;;;;;;;3.85;1.20;;;23.60;89.40;;;;;;5023704;28;20730;-81
2022/07/28 09:54:16;;;;;;;8.10;1.35;;;22.80;89.10;;;;;;5023542;28;20537;-81
2022/07/28 09:56:43;;;;;;;6.65;1.30;;;23.40;90.00;;;;;;5025042;28;20197;-82
2022/07/28 09:59:10;;;;;;;4.55;1.20;;;23.30;89.40;;;;;;5023470;28;20187;-82
2022/07/28 10:01:55;;;;;;;4.70;1.30;;;22.90;89.30;;;;;;5015047;28;20732;-82
2022/07/28 10:04:40;;;;;;;2.53;1.10;;;24.10;87.30;;;;;;5013803;28;20225;-80
2022/07/28 10:07:12;;;;;;;5.22;1.50;;;23.10;89.60;;;;;;5015000;28;20198;-81
2022/07/28 10:09:39;;;;;;;4.15;1.30;;;23.80;88.20;;;;;;5015238;28;20651;-81
2022/07/28 10:12:23;;;;;;;8.25;1.35;;;22.90;88.80;;;;;;5014331;28;20252;-81
2022/07/28 10:14:51;;;;;;;5.10;1.50;;;24.10;87.50;;;;;;5014858;28;20163;-81
2022/07/28 10:17:28;;;;;;;3.60;1.15;;;24.30;86.90;;;;;;5016073;28;20288;-82
2022/07/28 10:20:01;;;;;;;10.13;1.80;;;24.20;87.40;;;;;;5014567;28;20193;-82
2022/07/28 10:22:31;;;;;;;5.10;1.73;;;24.40;87.10;;;;;;5016452;28;20182;-81
2022/07/28 10:24:59;;;;;;;5.75;1.17;;;23.40;88.30;;;;;;5015233;28;20198;-82
2022/07/28 10:27:26;;;;;;;4.93;1.40;;;24.00;88.20;;;;;;5015744;28;20210;-83
2022/07/28 10:29:58;;;;;;;5.38;1.30;;;25.10;89.00;;;;;;5014789;28;20224;-84
2022/07/28 10:32:24;;;;;;;2.70;1.08;;;25.40;84.80;;;;;;5015716;28;20185;-82
2022/07/28 10:35:00;;;;;;;13.02;1.63;;;25.10;83.30;;;;;;5015361;28;20178;-84
2022/07/28 10:37:27;;;;;;;3.83;1.30;;;24.90;84.90;;;;;;5015541;28;20182;-84
2022/07/28 10:40:09;;;;;;;2.92;1.10;;;24.20;85.70;;;;;;5015781;28;20167;-82
2022/07/28 10:42:37;;;;;;;4.47;1.23;;;24.70;82.60;;;;;;5014686;28;20169;-84
2022/07/28 10:45:04;;;;;;;2.97;1.10;;;25.20;82.80;;;;;;5015404;28;20270;-83
2022/07/28 10:47:29;;;;;;;2.72;1.30;;;25.60;83.60;;;;;;5014301;28;20695;-83
2022/07/28 10:49:55;;;;;;;4.55;1.30;;;24.90;81.20;;;;;;5015204;28;20171;-84
2022/07/28 10:52:22;;;;;;;2.72;1.15;;;25.70;82.00;;;;;;5014255;28;20249;-84
2022/07/28 10:55:03;;;;;;;3.45;1.30;;;26.50;79.60;;;;;;5014980;28;20201;-84
2022/07/28 10:57:31;;;;;;;2.90;1.30;;;26.30;80.00;;;;;;5015366;28;20252;-84
2022/07/28 11:00:20;;;;;;;2.50;1.10;;;26.70;81.60;;;;;;5014271;28;20167;-83
2022/07/28 11:02:48;;;;;;;1.92;1.20;;;26.80;79.90;;;;;;5015476;28;20171;-83
2022/07/28 11:05:31;;;;;;;3.97;1.30;;;25.40;81.80;;;;;;5012348;28;20225;-83
2022/07/28 11:07:59;;;;;;;6.72;1.27;;;25.30;81.60;;;;;;5013396;28;20191;-84
2022/07/28 11:10:26;;;;;;;2.78;1.20;;;25.50;83.70;;;;;;5014024;28;20540;-83
2022/07/28 11:12:53;;;;;;;6.45;1.40;;;25.30;79.30;;;;;;5015589;28;20182;-83
2022/07/28 11:15:31;;;;;;;3.58;1.45;;;24.40;83.00;;;;;;5014680;28;20179;-83
2022/07/28 11:18:05;;;;;;;4.78;1.40;;;25.00;80.70;;;;;;5014864;28;20197;-83
2022/07/28 11:20:51;;;;;;;6.30;1.33;;;25.70;82.30;;;;;;5014942;28;20171;-83
2022/07/28 11:23:39;;;;;;;2.20;1.20;;;24.90;80.50;;;;;;5014180;28;20174;-84
2022/07/28 11:29:07;;;;;;;8.60;1.40;;;25.30;78.80;;;;;;5019546;28;20193;-81
2022/07/28 11:34:10;;;;;;;3.40;1.10;;;25.20;80.30;;;;;;5019139;28;20667;-84
2022/07/28 11:36:58;;;;;;;4.25;1.63;;;25.60;79.40;;;;;;5017865;28;20262;-84
2022/07/28 11:39:26;;;;;;;4.63;1.55;;;26.10;78.90;;;;;;5015495;28;20270;-83
2022/07/28 11:41:51;;;;;;;3.08;1.23;;;26.50;77.20;;;;;;5016759;28;20170;-82
2022/07/28 11:44:31;;;;;;;4.90;1.70;;;27.60;75.00;;;;;;5018084;28;20182;-83
2022/07/28 11:47:20;;;;;;;8.77;2.83;;;27.10;77.10;;;;;;5016381;28;20210;-81
2022/07/28 11:50:12;;;;;;;4.00;1.90;;;26.20;77.10;;;;;;5017899;28;20178;-81
2022/07/28 11:52:38;;;;;;;6.38;1.40;;;26.90;76.50;;;;;;5018106;28;20171;-83
2022/07/28 11:55:05;;;;;;;4.85;1.40;;;26.90;76.60;;;;;;5016867;28;20167;-83
2022/07/28 11:57:39;;;;;;;3.88;1.13;;;25.40;76.50;;;;;;5016122;28;20309;-83
2022/07/28 12:00:06;;;;;;;3.47;1.30;;;25.40;80.00;;;;;;5016252;28;20269;-82
2022/07/28 12:02:33;;;;;;;7.13;1.40;;;25.90;78.70;;;;;;5015988;28;20647;-81
2022/07/28 12:05:05;;;;;;;4.47;1.30;;;24.40;77.00;;;;;;5015605;28;20332;-81
2022/07/28 12:07:43;;;;;;;3.63;1.50;;;24.90;77.20;;;;;;5015727;28;20612;-82
2022/07/28 12:10:22;;;;;;;4.40;1.40;;;23.90;78.00;;;;;;5015554;28;20594;-82
2022/07/28 12:12:53;;;;;;;4.72;1.50;;;24.30;78.10;;;;;;5013658;28;20522;-82
2022/07/28 12:15:19;;;;;;;4.13;1.33;;;25.40;79.50;;;;;;5014218;28;20174;-82
2022/07/28 12:17:46;;;;;;;5.82;1.38;;;24.60;78.30;;;;;;5015362;28;20191;-82
2022/07/28 12:20:13;;;;;;;2.72;1.15;;;24.50;79.20;;;;;;5015149;28;20175;-81
2022/07/28 12:22:39;;;;;;;3.85;1.50;;;25.00;77.20;;;;;;5014083;28;20229;-81
2022/07/28 12:25:04;;;;;;;5.03;1.42;;;25.30;78.10;;;;;;5017515;28;20614;-82
2022/07/28 12:27:30;;;;;;;4.35;1.40;;;25.10;79.10;;;;;;5018213;28;20186;-82
2022/07/28 12:30:01;;;;;;;9.80;1.58;;;25.10;78.10;;;;;;5017685;28;20182;-82
2022/07/28 12:32:31;;;;;;;7.32;1.63;;;25.10;79.90;;;;;;5017162;28;20197;-82
2022/07/28 12:34:57;;;;;;;8.43;1.90;;;24.80;79.30;;;;;;5016743;28;20174;-83
2022/07/28 12:37:23;;;;;;;3.40;1.38;;;24.40;79.80;;;;;;5016335;28;20198;-82
2022/07/28 12:39:52;;;;;;;4.95;1.20;;;24.50;82.10;;;;;;5016256;28;20658;-82
2022/07/28 12:42:18;;;;;;;5.78;2.20;;;24.90;79.90;;;;;;5014893;28;20182;-82
2022/07/28 12:44:46;;;;;;;2.17;1.38;;;24.00;80.70;;;;;;5015234;28;20163;-82
2022/07/28 12:47:24;;;;;;;8.95;1.40;;;23.80;80.00;;;;;;5013724;28;20213;-82
2022/07/28 12:50:16;;;;;;;6.18;1.30;;;24.10;82.90;;;;;;5015540;28;20178;-82
2022/07/28 12:52:44;;;;;;;1.30;1.20;;;24.20;81.60;;;;;;5015570;28;20647;-82
2022/07/28 12:55:21;;;;;;;4.93;1.27;;;24.50;81.30;;;;;;5014139;28;20711;-82
2022/07/28 12:57:49;;;;;;;2.75;1.33;;;24.60;79.10;;;;;;5013803;28;20304;-79
2022/07/28 13:00:17;;;;;;;12.60;2.55;;;24.20;79.10;;;;;;5014673;28;20670;-79